Time;durP1;ratioP1;P1;durP2;ratioP2;P2;SDS_P1;SDS_P2;PMS_P1;PMS_P2;Temp;Humidity;BMP_temperature;BMP_pressure;BME280_temperature;BME280_humidity;BME280_pressure;Samples;Min_cycle;Max_cycle;Signal;HPM_P1;HPM_P2
2022/10/08 00:00:57;;;;;;;;;;;;;;;15.32;52.91;100714.19;4921169;28;7251;-78
2022/10/08 00:03:27;;;;;;;;;;;;;;;15.34;52.47;100722.00;4938991;28;7425;-78
2022/10/08 00:06:03;;;;;;;;;;;;;;;15.35;52.44;100716.84;4939162;28;8679;-79
2022/10/08 00:08:36;;;;;;;;;;;;;;;15.37;51.70;100706.59;4939749;28;6971;-79
2022/10/08 00:11:18;;;;;;;;;;;;;;;15.38;52.44;100708.34;4940807;28;7347;-80
2022/10/08 00:13:46;;;;;;;;;;;;;;;15.39;51.97;100713.56;4928561;28;8677;-78
2022/10/08 00:16:22;;;;;;;;;;;;;;;15.38;52.25;100709.25;4940549;28;7243;-79
2022/10/08 00:18:51;;;;;;;;;;;;;;;15.39;51.92;100703.25;4925965;29;8487;-79
2022/10/08 00:21:22;;;;;;;;;;;;;;;15.43;52.15;100709.38;4940380;28;8703;-78
2022/10/08 00:23:50;;;;;;;;;;;;;;;15.41;51.77;100701.56;4937575;28;8125;-78
2022/10/08 00:26:22;;;;;;;;;;;;;;;15.41;52.04;100709.31;4938827;28;6994;-78
2022/10/08 00:28:50;;;;;;;;;;;;;;;15.40;51.77;100707.56;4938942;28;7048;-78
2022/10/08 00:31:27;;;;;;;;;;;;;;;15.38;51.93;100701.50;4928906;28;6990;-80
2022/10/08 00:33:56;;;;;;;;;;;;;;;15.35;51.96;100709.13;4923398;29;6808;-79
2022/10/08 00:36:25;;;;;;;;;;;;;;;15.33;51.89;100697.84;4938104;28;8549;-79
2022/10/08 00:39:04;;;;;;;;;;;;;;;15.33;52.61;100702.16;4933192;29;8594;-78
2022/10/08 00:41:36;;;;;;;;;;;;;;;15.32;52.18;100700.41;4929740;29;7005;-78
2022/10/08 00:44:46;;;;;;;;;;;;;;;15.30;51.99;100689.13;4929494;29;7216;-78
2022/10/08 00:47:23;;;;;;;;;;;;;;;15.26;52.02;100686.44;4938090;28;7285;-79
2022/10/08 00:49:54;;;;;;;;;;;;;;;15.24;52.57;100687.22;4940185;28;7684;-79
2022/10/08 00:52:21;;;;;;;;;;;;;;;15.25;52.17;100686.41;4927379;28;8408;-79
2022/10/08 00:54:50;;;;;;;;;;;;;;;15.24;52.70;100692.38;4919355;29;8434;-77
2022/10/08 00:57:18;;;;;;;;;;;;;;;15.25;52.44;100683.81;4937926;28;7204;-79
2022/10/08 00:59:44;;;;;;;;;;;;;;;15.25;52.59;100694.13;4937603;28;7001;-78
2022/10/08 01:02:10;;;;;;;;;;;;;;;15.24;52.53;100682.06;4936167;28;8419;-78
2022/10/08 01:04:40;;;;;;;;;;;;;;;15.24;52.59;100680.38;4937510;28;7377;-79
2022/10/08 01:07:38;;;;;;;;;;;;;;;15.23;51.87;100682.88;4937616;28;7056;-78
2022/10/08 01:10:49;;;;;;;;;;;;;;;15.22;53.28;100681.13;4936762;28;8529;-79
2022/10/08 01:13:51;;;;;;;;;;;;;;;15.23;52.76;100680.31;4859099;28;1059902;-80
2022/10/08 01:17:01;;;;;;;;;;;;;;;15.22;52.07;100678.56;4926677;28;8402;-81
2022/10/08 01:19:52;;;;;;;;;;;;;;;15.25;53.27;100678.66;4941152;28;8334;-78
2022/10/08 01:22:34;;;;;;;;;;;;;;;15.26;53.17;100681.28;4939192;28;7269;-79
2022/10/08 01:25:43;;;;;;;;;;;;;;;15.28;52.14;100679.63;4938024;28;8537;-78
2022/10/08 01:28:50;;;;;;;;;;;;;;;15.27;52.89;100677.88;4940702;28;7008;-78
2022/10/08 01:31:26;;;;;;;;;;;;;;;15.30;53.34;100684.84;4925838;28;8907;-79
2022/10/08 01:34:02;;;;;;;;;;;;;;;15.31;52.54;100678.88;4938620;28;8431;-78
2022/10/08 01:36:38;;;;;;;;;;;;;;;15.36;52.85;100686.75;4920326;28;8493;-81
2022/10/08 01:39:12;;;;;;;;;;;;;;;15.38;53.15;100678.25;4926549;28;6844;-78
2022/10/08 01:41:41;;;;;;;;;;;;;;;15.41;52.84;100675.75;4938906;28;6988;-79
2022/10/08 01:44:18;;;;;;;;;;;;;;;15.47;52.71;100687.13;4921114;28;8424;-79
2022/10/08 01:46:48;;;;;;;;;;;;;;;15.48;52.71;100683.72;4936729;28;6947;-80
2022/10/08 01:49:21;;;;;;;;;;;;;;;15.51;52.85;100683.81;4926890;28;8456;-78
2022/10/08 01:51:56;;;;;;;;;;;;;;;15.54;53.40;100679.63;4939574;28;8296;-80
2022/10/08 01:54:28;;;;;;;;;;;;;;;15.58;52.75;100677.13;4938521;28;6996;-79
2022/10/08 01:57:00;;;;;;;;;;;;;;;15.61;52.12;100674.66;4926959;28;7211;-79
2022/10/08 01:59:31;;;;;;;;;;;;;;;15.61;52.85;100675.50;4913662;28;8513;-79
2022/10/08 02:02:22;;;;;;;;;;;;;;;15.63;52.94;100666.09;4936561;28;7040;-79
2022/10/08 02:04:50;;;;;;;;;;;;;;;15.63;52.94;100658.34;4938291;28;7784;-79
2022/10/08 02:07:28;;;;;;;;;;;;;;;15.64;52.66;100659.25;4920385;28;7211;-79
2022/10/08 02:10:23;;;;;;;;;;;;;;;15.65;52.99;100667.06;4926214;28;9241;-82
2022/10/08 02:12:48;;;;;;;;;;;;;;;15.66;52.54;100663.63;4916941;28;8556;-83
2022/10/08 02:15:40;;;;;;;;;;;;;;;15.68;52.76;100661.97;4936556;28;6911;-82
2022/10/08 02:18:17;;;;;;;;;;;;;;;15.71;52.64;100661.19;4936597;28;6828;-81
2022/10/08 02:21:07;;;;;;;;;;;;;;;15.75;52.88;100655.28;4926853;28;7270;-83
2022/10/08 02:23:53;;;;;;;;;;;;;;;15.81;53.43;100654.59;4935443;28;7229;-82
2022/10/08 02:26:34;;;;;;;;;;;;;;;15.85;53.08;100656.44;4936578;28;7257;-82
2022/10/08 02:29:09;;;;;;;;;;;;;;;15.89;53.13;100653.13;4937098;28;6900;-82
2022/10/08 02:31:47;;;;;;;;;;;;;;;15.93;52.84;100660.19;4935263;28;7068;-82
2022/10/08 02:34:29;;;;;;;;;;;;;;;15.97;53.11;100655.94;4938226;28;8753;-82
2022/10/08 02:37:08;;;;;;;;;;;;;;;16.01;53.10;100659.50;4933805;28;8449;-83
2022/10/08 02:39:42;;;;;;;;;;;;;;;16.07;53.27;100657.97;4921286;28;8660;-83
2022/10/08 02:42:21;;;;;;;;;;;;;;;16.14;53.15;100660.75;4918647;28;8834;-81
2022/10/08 02:45:02;;;;;;;;;;;;;;;16.20;53.29;100659.22;4939376;28;7034;-83
2022/10/08 02:47:33;;;;;;;;;;;;;;;16.26;53.23;100649.91;4937200;28;7060;-83
2022/10/08 02:50:08;;;;;;;;;;;;;;;16.32;52.97;100658.69;4927368;29;7217;-82
2022/10/08 02:52:41;;;;;;;;;;;;;;;16.36;52.91;100655.34;4938992;28;7024;-83
2022/10/08 02:55:28;;;;;;;;;;;;;;;16.44;53.11;100657.28;4940091;28;6832;-82
2022/10/08 02:58:05;;;;;;;;;;;;;;;16.50;53.02;100657.47;4929276;28;7081;-83
2022/10/08 03:00:42;;;;;;;;;;;;;;;16.56;52.80;100649.00;4913559;28;8431;-82
2022/10/08 03:03:29;;;;;;;;;;;;;;;16.59;52.98;100655.13;4927941;29;6812;-83
2022/10/08 03:06:00;;;;;;;;;;;;;;;16.66;53.19;100658.75;4911123;29;8761;-83
2022/10/08 03:08:26;;;;;;;;;;;;;;;16.71;52.99;100662.38;4937440;28;8873;-83
2022/10/08 03:10:53;;;;;;;;;;;;;;;16.76;52.85;100671.13;4938422;28;7185;-83
2022/10/08 03:13:22;;;;;;;;;;;;;;;16.84;52.75;100671.31;4938113;28;7263;-81
2022/10/08 03:15:53;;;;;;;;;;;;;;;16.91;52.70;100680.13;4937038;28;6970;-82
2022/10/08 03:18:23;;;;;;;;;;;;;;;16.96;52.65;100681.13;4926242;28;8395;-82
2022/10/08 03:20:51;;;;;;;;;;;;;;;17.02;52.47;100672.66;4935572;28;8462;-83
2022/10/08 03:23:18;;;;;;;;;;;;;;;17.07;52.74;100669.34;4939803;28;6820;-83
2022/10/08 03:25:44;;;;;;;;;;;;;;;17.13;52.62;100672.94;4939744;28;6962;-83
2022/10/08 03:28:10;;;;;;;;;;;;;;;17.17;52.51;100674.78;4938488;28;7126;-82
2022/10/08 03:30:35;;;;;;;;;;;;;;;17.21;52.62;100689.56;4937772;28;6784;-82
2022/10/08 03:33:02;;;;;;;;;;;;;;;17.22;52.62;100688.72;4940341;28;7190;-82
2022/10/08 03:35:27;;;;;;;;;;;;;;;17.12;52.66;100690.19;4940347;28;6800;-82
2022/10/08 03:37:53;;;;;;;;;;;;;;;17.00;53.42;100695.94;4930016;28;6809;-81
2022/10/08 03:40:20;;;;;;;;;;;;;;;16.89;53.57;100697.31;4940102;28;7177;-80
2022/10/08 03:42:46;;;;;;;;;;;;;;;16.78;53.94;100704.81;4938231;28;6789;-81
2022/10/08 03:45:12;;;;;;;;;;;;;;;16.70;54.20;100714.94;4945316;28;6768;-81
2022/10/08 03:47:38;;;;;;;;;;;;;;;16.61;54.64;100712.09;4940354;28;8752;-82
2022/10/08 03:50:05;;;;;;;;;;;;;;;16.57;54.99;100720.59;4939509;28;6928;-82
2022/10/08 03:52:31;;;;;;;;;;;;;;;16.48;55.21;100718.66;4938939;28;6868;-81
2022/10/08 03:54:56;;;;;;;;;;;;;;;16.41;55.06;100720.16;4923254;28;6969;-81
2022/10/08 03:57:22;;;;;;;;;;;;;;;16.37;55.33;100724.38;4938372;28;7165;-81
2022/10/08 03:59:47;;;;;;;;;;;;;;;16.33;55.24;100726.84;4930322;28;7623;-81
2022/10/08 04:02:13;;;;;;;;;;;;;;;16.27;55.95;100731.81;4936059;28;6954;-80
2022/10/08 04:04:39;;;;;;;;;;;;;;;16.24;56.03;100733.50;4935782;28;8696;-80
2022/10/08 04:07:05;;;;;;;;;;;;;;;16.19;56.30;100739.34;4936342;28;6785;-79
2022/10/08 04:09:30;;;;;;;;;;;;;;;16.15;55.97;100732.31;4938717;28;6788;-81
2022/10/08 04:11:56;;;;;;;;;;;;;;;16.11;56.73;100736.50;4940620;28;7003;-79
2022/10/08 04:14:21;;;;;;;;;;;;;;;16.09;56.87;100740.75;4933051;28;7122;-82
2022/10/08 04:16:47;;;;;;;;;;;;;;;16.07;56.81;100742.44;4936824;28;6788;-80
2022/10/08 04:19:13;;;;;;;;;;;;;;;16.01;57.05;100732.78;4918365;28;8494;-82
2022/10/08 04:21:39;;;;;;;;;;;;;;;15.98;57.00;100743.00;4938911;28;6947;-81
2022/10/08 04:24:05;;;;;;;;;;;;;;;15.99;57.50;100746.47;4940873;28;8666;-81
2022/10/08 04:26:30;;;;;;;;;;;;;;;15.95;57.21;100741.22;4939669;28;7223;-82
2022/10/08 04:28:56;;;;;;;;;;;;;;;15.95;57.65;100745.50;4941040;28;7059;-82
2022/10/08 04:31:22;;;;;;;;;;;;;;;15.94;57.87;100754.97;4927523;28;8474;-82
2022/10/08 04:33:50;;;;;;;;;;;;;;;15.94;57.86;100749.81;4937803;28;6856;-81
2022/10/08 04:36:20;;;;;;;;;;;;;;;15.94;57.93;100752.41;4939916;28;6950;-83
2022/10/08 04:38:47;;;;;;;;;;;;;;;15.96;58.02;100757.59;4941560;28;7091;-82
2022/10/08 04:41:23;;;;;;;;;;;;;;;15.97;58.36;100754.19;4937111;28;7020;-82
2022/10/08 04:43:51;;;;;;;;;;;;;;;15.98;58.19;100761.09;4922022;28;8521;-82
2022/10/08 04:46:20;;;;;;;;;;;;;;;15.99;58.88;100767.16;4927861;28;8945;-83
2022/10/08 04:48:54;;;;;;;;;;;;;;;16.01;58.19;100763.81;4922811;28;8440;-83
2022/10/08 04:51:24;;;;;;;;;;;;;;;16.01;58.90;100761.22;4937168;28;8794;-81
2022/10/08 04:53:51;;;;;;;;;;;;;;;16.01;58.84;100755.16;4935437;28;8452;-84
2022/10/08 04:56:26;;;;;;;;;;;;;;;16.00;58.53;100763.75;4939370;28;6983;-83
2022/10/08 04:58:56;;;;;;;;;;;;;;;15.98;59.12;100765.41;4921573;28;8470;-81
2022/10/08 05:01:24;;;;;;;;;;;;;;;15.95;58.81;100763.59;4932188;28;7774;-83
2022/10/08 05:03:53;;;;;;;;;;;;;;;15.93;59.09;100763.56;4937123;28;7218;-82
2022/10/08 05:06:23;;;;;;;;;;;;;;;15.91;59.09;100765.22;4937708;28;9621;-83
2022/10/08 05:08:49;;;;;;;;;;;;;;;15.91;59.17;100765.22;4927061;28;8549;-84
2022/10/08 05:11:17;;;;;;;;;;;;;;;15.91;59.30;100770.38;4914271;28;9212;-81
2022/10/08 05:13:49;;;;;;;;;;;;;;;15.91;59.27;100754.88;4935157;28;9184;-83
2022/10/08 05:16:16;;;;;;;;;;;;;;;15.91;59.21;100761.75;4916889;28;8468;-83
2022/10/08 05:18:41;;;;;;;;;;;;;;;15.92;59.76;100771.28;4921567;28;8521;-82
2022/10/08 05:21:12;;;;;;;;;;;;;;;15.93;59.94;100773.91;4935431;28;8773;-84
2022/10/08 05:23:41;;;;;;;;;;;;;;;15.94;60.01;100778.25;4936320;28;7035;-84
2022/10/08 05:26:10;;;;;;;;;;;;;;;15.95;60.28;100782.59;4922353;28;8715;-78
2022/10/08 05:28:36;;;;;;;;;;;;;;;15.95;60.11;100782.59;4939163;28;9111;-78
2022/10/08 05:31:02;;;;;;;;;;;;;;;15.99;59.92;100780.97;4943122;28;7005;-78
2022/10/08 05:33:27;;;;;;;;;;;;;;;16.01;60.14;100783.59;4933397;28;8799;-80
2022/10/08 05:35:53;;;;;;;;;;;;;;;16.03;60.15;100787.09;4941590;28;6768;-78
2022/10/08 05:38:19;;;;;;;;;;;;;;;16.06;60.16;100789.81;4940753;28;7204;-79
2022/10/08 05:40:44;;;;;;;;;;;;;;;16.09;60.06;100792.47;4942060;28;8604;-78
2022/10/08 05:43:10;;;;;;;;;;;;;;;16.13;59.89;100802.09;4928173;28;8463;-77
2022/10/08 05:45:35;;;;;;;;;;;;;;;16.14;60.04;100801.28;4936978;28;8568;-75
2022/10/08 05:48:01;;;;;;;;;;;;;;;16.17;60.02;100798.78;4938014;28;7174;-77
2022/10/08 05:50:27;;;;;;;;;;;;;;;16.20;60.07;100804.03;4939165;28;6824;-78
2022/10/08 05:52:52;;;;;;;;;;;;;;;16.24;60.04;100805.00;4939362;28;7083;-79
2022/10/08 05:55:18;;;;;;;;;;;;;;;16.26;60.00;100808.50;4939462;28;6780;-78
2022/10/08 05:57:44;;;;;;;;;;;;;;;16.26;60.17;100821.44;4923308;28;7175;-78
2022/10/08 06:00:10;;;;;;;;;;;;;;;16.27;60.38;100820.63;4939006;28;6831;-80
2022/10/08 06:02:36;;;;;;;;;;;;;;;16.29;60.10;100826.72;4929849;28;7260;-78
2022/10/08 06:05:02;;;;;;;;;;;;;;;16.32;60.40;100828.50;4938615;28;6931;-79
2022/10/08 06:07:27;;;;;;;;;;;;;;;16.33;60.54;100825.97;4938728;28;6761;-80
2022/10/08 06:09:53;;;;;;;;;;;;;;;16.37;59.83;100830.44;4938624;28;6947;-79
2022/10/08 06:12:18;;;;;;;;;;;;;;;16.40;60.28;100837.41;4941489;28;6768;-78
2022/10/08 06:14:46;;;;;;;;;;;;;;;16.43;60.33;100837.50;4935061;28;6784;-78
2022/10/08 06:17:12;;;;;;;;;;;;;;;16.49;60.75;100842.00;4936018;28;6800;-76
2022/10/08 06:19:37;;;;;;;;;;;;;;;16.51;60.44;100851.56;4919402;28;8458;-78
2022/10/08 06:22:03;;;;;;;;;;;;;;;16.54;60.51;100853.34;4938860;28;6792;-78
2022/10/08 06:24:30;;;;;;;;;;;;;;;16.56;60.32;100849.09;4937496;28;8757;-79
2022/10/08 06:26:55;;;;;;;;;;;;;;;16.59;60.58;100849.19;4941310;28;6788;-77
2022/10/08 06:29:21;;;;;;;;;;;;;;;16.61;60.45;100864.75;4938423;28;6772;-78
2022/10/08 06:31:47;;;;;;;;;;;;;;;16.62;60.67;100864.81;4939871;28;6772;-78
2022/10/08 06:34:14;;;;;;;;;;;;;;;16.67;60.76;100872.72;4938691;28;8060;-78
2022/10/08 06:36:39;;;;;;;;;;;;;;;16.69;60.60;100876.22;4939837;28;6812;-78
2022/10/08 06:39:15;;;;;;;;;;;;;;;16.74;60.91;100882.44;4941154;28;7213;-78
2022/10/08 06:41:41;;;;;;;;;;;;;;;16.77;60.33;100889.41;4923774;28;7372;-78
2022/10/08 06:44:12;;;;;;;;;;;;;;;16.78;60.86;100886.84;4936329;28;8713;-78
2022/10/08 06:46:38;;;;;;;;;;;;;;;16.82;60.80;100898.19;4928279;28;7266;-78
2022/10/08 06:49:05;;;;;;;;;;;;;;;16.85;60.61;100897.41;4935218;28;8756;-78
2022/10/08 06:51:30;;;;;;;;;;;;;;;16.91;60.46;100895.00;4913119;28;12336;-78
2022/10/08 06:53:58;;;;;;;;;;;;;;;16.96;60.60;100905.50;4940041;28;6780;-78
2022/10/08 06:56:24;;;;;;;;;;;;;;;16.99;60.61;100914.22;4936449;28;6880;-78
2022/10/08 06:58:51;;;;;;;;;;;;;;;17.02;60.50;100916.06;4926485;29;6955;-78
2022/10/08 07:01:21;;;;;;;;;;;;;;;17.06;60.64;100921.38;4924537;28;6784;-77
2022/10/08 07:03:53;;;;;;;;;;;;;;;17.09;60.33;100923.19;4939590;28;6796;-78
2022/10/08 07:06:19;;;;;;;;;;;;;;;17.12;60.07;100917.22;4922881;29;7309;-77
2022/10/08 07:08:46;;;;;;;;;;;;;;;17.16;60.16;100924.25;4940198;28;6985;-78
2022/10/08 07:11:16;;;;;;;;;;;;;;;17.17;60.25;100928.56;4922523;28;7336;-78
2022/10/08 07:13:43;;;;;;;;;;;;;;;17.17;60.33;100926.88;4943856;28;6999;-78
2022/10/08 07:16:16;;;;;;;;;;;;;;;17.16;60.03;100940.66;4938741;28;8125;-76
2022/10/08 07:18:43;;;;;;;;;;;;;;;17.19;60.42;100945.03;4938872;28;7272;-76
2022/10/08 07:21:12;;;;;;;;;;;;;;;17.24;60.75;100953.84;4940332;28;6824;-77
2022/10/08 07:23:38;;;;;;;;;;;;;;;17.34;60.79;100960.19;4936715;28;8886;-77
2022/10/08 07:26:14;;;;;;;;;;;;;;;17.42;60.49;100948.28;4942797;28;7124;-78
2022/10/08 07:28:55;;;;;;;;;;;;;;;17.53;60.79;100956.38;4907390;28;8416;-78
2022/10/08 07:31:26;;;;;;;;;;;;;;;17.62;60.68;100961.84;4939914;28;7007;-79
2022/10/08 07:33:52;;;;;;;;;;;;;;;17.65;59.88;100962.75;4930744;28;7022;-78
2022/10/08 07:36:21;;;;;;;;;;;;;;;17.62;59.25;100966.13;4942859;28;6971;-78
2022/10/08 07:38:51;;;;;;;;;;;;;;;17.59;59.74;100966.94;4942075;28;6800;-78
2022/10/08 07:41:16;;;;;;;;;;;;;;;17.55;59.51;100974.59;4923479;28;8981;-78
2022/10/08 07:43:43;;;;;;;;;;;;;;;17.51;59.72;100977.91;4930512;28;6776;-79
2022/10/08 07:46:11;;;;;;;;;;;;;;;17.47;59.52;100967.47;4941701;28;6818;-78
2022/10/08 07:48:37;;;;;;;;;;;;;;;17.44;59.63;100988.13;4932866;28;9028;-78
2022/10/08 07:51:14;;;;;;;;;;;;;;;17.45;60.09;100988.97;4925069;28;6788;-75
2022/10/08 07:53:40;;;;;;;;;;;;;;;17.47;59.93;100982.13;4914294;28;7253;-78
2022/10/08 07:56:08;;;;;;;;;;;;;;;17.51;59.79;100983.09;4918919;28;7021;-79
2022/10/08 07:58:34;;;;;;;;;;;;;;;17.57;60.36;100994.50;4909388;28;7005;-77
2022/10/08 08:01:03;;;;;;;;;;;;;;;17.69;60.52;101000.91;4940273;28;7066;-78
2022/10/08 08:03:29;;;;;;;;;;;;;;;17.79;59.96;100996.81;4941944;28;7181;-80
2022/10/08 08:06:11;;;;;;;;;;;;;;;17.87;60.15;100988.44;4926807;28;6796;-77
2022/10/08 08:08:39;;;;;;;;;;;;;;;17.94;59.53;101001.56;4939051;28;7001;-78
2022/10/08 08:11:08;;;;;;;;;;;;;;;17.96;59.33;101002.47;4911246;28;9968;-80
2022/10/08 08:13:37;;;;;;;;;;;;;;;17.96;60.08;101005.97;4940933;28;6800;-79
2022/10/08 08:16:11;;;;;;;;;;;;;;;17.98;59.45;101009.47;4942556;28;8238;-78
2022/10/08 08:18:40;;;;;;;;;;;;;;;17.98;59.26;101006.00;4932670;28;7305;-78
2022/10/08 08:21:12;;;;;;;;;;;;;;;17.95;59.18;101011.97;4939700;28;6803;-78
2022/10/08 08:23:44;;;;;;;;;;;;;;;17.90;58.71;101014.44;4928467;28;7219;-78
2022/10/08 08:26:20;;;;;;;;;;;;;;;17.87;59.29;101016.97;4942182;28;6812;-77
2022/10/08 08:28:58;;;;;;;;;;;;;;;17.83;59.42;101022.03;4944787;28;7019;-77
2022/10/08 08:31:33;;;;;;;;;;;;;;;17.89;59.70;101027.34;4943266;28;7209;-77
2022/10/08 08:34:07;;;;;;;;;;;;;;;17.96;59.94;101034.47;4942876;28;8423;-78
2022/10/08 08:36:40;;;;;;;;;;;;;;;18.08;60.02;101035.69;4924476;28;7219;-79
2022/10/08 08:39:13;;;;;;;;;;;;;;;18.20;60.12;101037.75;4943022;28;6971;-78
2022/10/08 08:42:16;;;;;;;;;;;;;;;18.36;59.46;101046.81;4940388;28;6811;-77
2022/10/08 08:44:55;;;;;;;;;;;;;;;18.48;59.01;101051.44;4943958;28;6953;-78
2022/10/08 08:47:44;;;;;;;;;;;;;;;18.53;58.48;101049.81;4942235;28;7207;-78
2022/10/08 08:50:34;;;;;;;;;;;;;;;18.51;58.16;101057.59;4941521;28;7715;-79
2022/10/08 08:53:01;;;;;;;;;;;;;;;18.46;57.87;101060.06;4941526;28;8069;-78
2022/10/08 08:55:46;;;;;;;;;;;;;;;18.44;58.11;101060.84;4932963;28;8519;-78
2022/10/08 08:58:36;;;;;;;;;;;;;;;18.42;58.23;101058.22;4939371;28;8722;-78
2022/10/08 09:01:07;;;;;;;;;;;;;;;18.47;58.40;101058.34;4940885;28;6804;-78
2022/10/08 09:03:46;;;;;;;;;;;;;;;18.58;58.89;101061.22;4926810;28;8538;-78
2022/10/08 09:06:16;;;;;;;;;;;;;;;18.75;58.37;101061.63;4941982;28;6968;-77
2022/10/08 09:08:55;;;;;;;;;;;;;;;18.91;58.33;101065.47;4931727;28;7119;-78
2022/10/08 09:11:23;;;;;;;;;;;;;;;19.08;57.30;101068.53;4930630;28;8474;-78
2022/10/08 09:14:13;;;;;;;;;;;;;;;19.24;57.40;101069.75;4941533;28;8441;-78
2022/10/08 09:16:40;;;;;;;;;;;;;;;19.38;56.69;101069.19;4939446;28;8481;-78
2022/10/08 09:19:08;;;;;;;;;;;;;;;19.47;55.81;101063.34;4942402;28;7199;-81
2022/10/08 09:21:33;;;;;;;;;;;;;;;19.63;55.87;101077.53;4941173;28;6808;-78
2022/10/08 09:24:00;;;;;;;;;;;;;;;19.76;55.37;101079.53;4940590;28;6776;-78
2022/10/08 09:26:34;;;;;;;;;;;;;;;19.85;54.94;101090.13;4942196;28;6788;-78
2022/10/08 09:29:02;;;;;;;;;;;;;;;19.90;54.74;101081.56;4940869;28;8137;-78
2022/10/08 09:31:55;;;;;;;;;;;;;;;19.94;53.59;101093.81;4925516;28;8687;-78
2022/10/08 09:34:21;;;;;;;;;;;;;;;19.92;53.31;101091.13;4940080;28;7474;-78
2022/10/08 09:37:01;;;;;;;;;;;;;;;19.85;53.14;101095.34;4940705;28;6844;-79
2022/10/08 09:39:32;;;;;;;;;;;;;;;19.67;52.70;101105.34;4941721;28;7285;-79
2022/10/08 09:42:13;;;;;;;;;;;;;;;19.50;52.80;101113.63;4932483;28;6789;-79
2022/10/08 09:45:02;;;;;;;;;;;;;;;19.35;53.44;101111.56;4942136;28;8471;-79
2022/10/08 09:47:31;;;;;;;;;;;;;;;19.29;54.21;101114.06;4922849;28;7289;-77
2022/10/08 09:50:04;;;;;;;;;;;;;;;19.34;54.31;101107.22;4939213;28;7145;-79
2022/10/08 09:52:30;;;;;;;;;;;;;;;19.52;55.35;101101.59;4940524;28;6800;-80
2022/10/08 09:55:15;;;;;;;;;;;;;;;19.75;54.21;101103.78;4941173;28;6776;-79
2022/10/08 09:57:47;;;;;;;;;;;;;;;19.91;54.09;101110.19;4931792;28;6873;-80
2022/10/08 10:00:36;;;;;;;;;;;;;;;20.05;53.33;101117.44;4940711;28;7201;-80
2022/10/08 10:03:06;;;;;;;;;;;;;;;20.22;53.97;101107.38;4928646;28;8427;-79
2022/10/08 10:05:35;;;;;;;;;;;;;;;20.76;54.09;101110.94;4922767;28;8588;-79
2022/10/08 10:08:02;;;;;;;;;;;;;;;21.80;53.22;101105.56;4940193;28;6804;-78
2022/10/08 10:10:45;;;;;;;;;;;;;;;22.98;51.67;101109.41;4938852;28;6792;-79
2022/10/08 10:13:22;;;;;;;;;;;;;;;24.08;48.94;101103.97;4939914;28;6980;-79
2022/10/08 10:15:57;;;;;;;;;;;;;;;24.54;46.50;101106.69;4942824;28;6824;-78
2022/10/08 10:18:53;;;;;;;;;;;;;;;24.23;45.14;101111.84;4938176;28;7317;-78
2022/10/08 10:21:49;;;;;;;;;;;;;;;23.50;44.36;101114.16;4923116;28;8831;-78
2022/10/08 10:24:35;;;;;;;;;;;;;;;22.91;45.31;101113.72;4942290;28;7219;-79
2022/10/08 10:27:13;;;;;;;;;;;;;;;22.46;46.28;101121.13;4911452;29;8427;-80
2022/10/08 10:30:21;;;;;;;;;;;;;;;22.32;47.31;101116.66;4941106;28;8448;-79
2022/10/08 10:33:13;;;;;;;;;;;;;;;23.19;46.91;101126.16;4941003;28;11721;-79
2022/10/08 10:35:53;;;;;;;;;;;;;;;24.48;45.54;101113.66;4939942;28;7014;-78
2022/10/08 10:38:27;;;;;;;;;;;;;;;25.69;43.93;101112.72;4914508;29;8284;-79
2022/10/08 10:41:25;;;;;;;;;;;;;;;26.97;42.26;101118.13;4926906;29;8495;-79
2022/10/08 10:43:59;;;;;;;;;;;;;;;28.02;40.25;101118.75;4941487;28;7006;-79
2022/10/08 10:46:40;;;;;;;;;;;;;;;28.44;38.12;101117.31;4939958;28;6808;-80
2022/10/08 10:49:16;;;;;;;;;;;;;;;27.99;37.75;101122.28;4943110;28;7609;-80
2022/10/08 10:51:59;;;;;;;;;;;;;;;26.97;37.87;101128.63;4944075;28;8766;-78
2022/10/08 10:54:59;;;;;;;;;;;;;;;25.84;38.49;101123.16;4944991;28;6818;-80
2022/10/08 10:58:02;;;;;;;;;;;;;;;24.84;40.22;101137.31;4943650;28;7046;-79
2022/10/08 11:00:52;;;;;;;;;;;;;;;24.74;40.44;101142.53;4945912;28;8256;-81
2022/10/08 11:03:24;;;;;;;;;;;;;;;25.18;39.59;101147.78;4942417;28;6959;-79
2022/10/08 11:06:18;;;;;;;;;;;;;;;25.40;38.80;101153.88;4939531;28;6974;-80
2022/10/08 11:09:41;;;;;;;;;;;;;;;25.09;38.21;101149.53;4943320;28;7225;-79
2022/10/08 11:12:48;;;;;;;;;;;;;;;25.11;38.61;101152.16;4946800;28;6824;-78
2022/10/08 11:15:21;;;;;;;;;;;;;;;25.57;38.43;101148.63;4943700;28;7001;-78
2022/10/08 11:18:08;;;;;;;;;;;;;;;26.22;37.67;101147.56;4945728;28;6804;-79
2022/10/08 11:21:05;;;;;;;;;;;;;;;27.06;36.93;101138.22;4929308;28;7498;-79
2022/10/08 11:24:22;;;;;;;;;;;;;;;28.00;35.71;101131.03;4928682;28;8925;-79
2022/10/08 11:27:32;;;;;;;;;;;;;;;28.92;34.56;101138.53;4937369;28;7234;-80
2022/10/08 11:30:14;;;;;;;;;;;;;;;29.56;34.35;101137.38;4923874;28;7376;-78
2022/10/08 11:32:48;;;;;;;;;;;;;;;30.14;33.65;101129.16;4942814;28;11388;-79
2022/10/08 11:35:32;;;;;;;;;;;;;;;30.49;32.30;101129.25;4943978;28;7221;-80
2022/10/08 11:38:19;;;;;;;;;;;;;;;30.66;31.90;101134.16;4943784;28;8333;-78
2022/10/08 11:41:11;;;;;;;;;;;;;;;30.76;30.96;101130.38;4940849;28;7106;-80
2022/10/08 11:43:54;;;;;;;;;;;;;;;30.56;29.76;101129.94;4935228;28;7247;-75
2022/10/08 11:46:35;;;;;;;;;;;;;;;30.41;30.45;101120.63;4937208;28;8277;-76
2022/10/08 11:49:12;;;;;;;;;;;;;;;30.44;30.05;101137.28;4936523;28;6900;-80
2022/10/08 11:51:49;;;;;;;;;;;;;;;30.22;29.54;101128.97;4937038;28;7630;-76
2022/10/08 11:54:27;;;;;;;;;;;;;;;29.75;29.95;101131.72;4938831;28;7031;-76
2022/10/08 11:57:23;;;;;;;;;;;;;;;28.89;29.48;101143.88;4935048;28;7214;-75
2022/10/08 11:59:52;;;;;;;;;;;;;;;28.05;29.57;101138.88;4915817;28;7344;-77
2022/10/08 12:02:40;;;;;;;;;;;;;;;27.86;30.50;101137.38;4919797;28;6785;-74
2022/10/08 12:05:21;;;;;;;;;;;;;;;28.00;29.93;101138.94;4904780;29;6949;-77
2022/10/08 12:07:53;;;;;;;;;;;;;;;27.41;29.74;101145.75;4920200;28;8156;-77
2022/10/08 12:10:19;;;;;;;;;;;;;;;26.48;30.45;101146.50;4925212;28;6806;-76
2022/10/08 12:12:47;;;;;;;;;;;;;;;25.65;30.74;101149.47;4919703;28;8733;-74
2022/10/08 12:15:29;;;;;;;;;;;;;;;24.72;31.79;101157.34;4919441;28;6812;-76
2022/10/08 12:18:22;;;;;;;;;;;;;;;23.72;32.13;101172.72;4921072;28;8542;-76
2022/10/08 12:21:20;;;;;;;;;;;;;;;22.85;33.43;101177.25;4921247;28;6820;-76
2022/10/08 12:23:46;;;;;;;;;;;;;;;22.24;34.09;101180.06;4909717;28;7007;-76
2022/10/08 12:26:14;;;;;;;;;;;;;;;21.75;35.15;101179.44;4935059;28;7014;-76
2022/10/08 12:28:49;;;;;;;;;;;;;;;21.37;35.41;101187.53;4921466;28;6831;-75
2022/10/08 12:31:32;;;;;;;;;;;;;;;21.09;35.82;101184.47;4919186;28;6805;-76
2022/10/08 12:34:02;;;;;;;;;;;;;;;20.84;36.53;101178.84;4932451;28;7206;-77
2022/10/08 12:36:50;;;;;;;;;;;;;;;20.68;36.84;101175.94;4937599;28;6793;-77
2022/10/08 12:39:35;;;;;;;;;;;;;;;20.56;36.96;101165.25;4919187;29;6805;-78
2022/10/08 12:42:23;;;;;;;;;;;;;;;20.47;36.22;101172.91;4907839;29;7005;-75
2022/10/08 12:45:02;;;;;;;;;;;;;;;20.44;36.51;101183.25;4904958;29;6995;-75
2022/10/08 12:47:46;;;;;;;;;;;;;;;20.40;36.29;101172.81;4917919;28;6971;-79
2022/10/08 12:50:37;;;;;;;;;;;;;;;20.36;36.00;101170.09;4934401;28;7114;-77
2022/10/08 12:53:05;;;;;;;;;;;;;;;20.30;36.68;101176.06;4919259;28;7183;-79
2022/10/08 12:55:46;;;;;;;;;;;;;;;20.23;36.52;101180.28;4931453;28;6788;-77
2022/10/08 12:58:26;;;;;;;;;;;;;;;20.14;36.91;101179.19;4932478;28;8527;-79
2022/10/08 13:01:00;;;;;;;;;;;;;;;20.03;37.25;101186.75;4931490;28;7198;-79
2022/10/08 13:03:25;;;;;;;;;;;;;;;19.92;37.75;101189.13;4919040;29;7254;-78
2022/10/08 13:05:55;;;;;;;;;;;;;;;19.82;38.09;101191.50;4935941;28;6923;-78
2022/10/08 13:08:38;;;;;;;;;;;;;;;19.75;38.06;101184.41;4918137;28;6964;-77
2022/10/08 13:11:13;;;;;;;;;;;;;;;19.74;38.17;101197.38;4934329;28;7202;-78
2022/10/08 13:13:41;;;;;;;;;;;;;;;19.74;37.67;101189.56;4938096;28;6968;-78
2022/10/08 13:16:24;;;;;;;;;;;;;;;19.75;37.78;101197.41;4921742;28;6879;-78
2022/10/08 13:18:57;;;;;;;;;;;;;;;19.75;37.14;101192.22;4937946;28;6804;-79
2022/10/08 13:21:32;;;;;;;;;;;;;;;19.77;37.48;101193.13;4933615;28;6788;-78
2022/10/08 13:24:03;;;;;;;;;;;;;;;19.81;37.50;101202.75;4921720;28;6784;-79